LFQQ/LIL METAR and TAF weather

Enter ICAO airport designator
Station Type Date Time Source
LFQQ METAR 2021/01/16 02:00 UTC NOAA

LFQQ 160200Z AUTO VRB02KT 9000 OVC044 00/M02 Q1030 TEMPO 3000 BR


Station Type Date Time Source
LFQQ Decoded METAR 2021/01/16 02:00 UTC NOAA

Lille, France (LFQQ) 50-34N 003-06E 52M
Jan 15, 2021 - 09:00 PM EST / 2021.01.16 0200 UTC
Wind: Variable at 2 MPH (2 KT):0
Visibility: 5 mile(s):0
Sky conditions: overcast
Temperature: 32 F (0 C)
Dew Point: 28 F (-2 C)
Relative Humidity: 86%
Pressure (altimeter): 30.42 in. Hg (1030 hPa)
ob: LFQQ 160200Z AUTO VRB02KT 9000 OVC044 00/M02 Q1030 TEMPO 3000 BR
cycle: 2

Station Type Date Time Source
LFQQ TAF 2021/01/15 18:45 UTC NOAA

TAF LFQQ 151700Z 1518/1624 VRB02KT 9999 BKN035 PROB40 1522/1606 3000 BR
BECMG 1606/1608 16010KT
BECMG 1609/1611 2000 SN OVC010
TEMPO 1611/1618 16015G25KT 0600 SN FG OVC005 PROB40
TEMPO 1614/1619 FZRA
BECMG 1619/1621 23010KT 9999 NSW BKN030

Example: see airport list